Cold Spring, Kentucky
Current Conditions -  °F | °C
As of 9:53 AM on Tuesday 21 Oct 2014 (Local Time) from KLUK Reporting Station
Overcast Overcast  
Wind Chill: 52°   Ceiling: 6000
Heat Index: 52°   Visibility: 10mi
Dew Point: 44°   Wind: 7mph
Humidity: 74%   Direction: 330°NNW
Pressure: 30.03"   Gusts: NA
Location:  39.0173°N, 84.4405°W
Report Text: KLUK 211353Z 33006KT 10SM OVC060 11/07 A3003 RMK AO2 SLP170 T01110067
Loading
Personal Weather Stations






























Interactive Weather Map
Tropical Storm Tracking
New forecast layout! Learn more

10-Day Weather Forecast

Advertisements
Track Severe Weather on mobile